Time;durP1;ratioP1;P1;durP2;ratioP2;P2;SDS_P1;SDS_P2;PMS_P1;PMS_P2;Temp;Humidity;BMP_temperature;BMP_pressure;BME280_temperature;BME280_humidity;BME280_pressure;Samples;Min_cycle;Max_cycle;Signal;HPM_P1;HPM_P2
2022/08/20 00:01:12;;;;;;;2.70;2.00;;;;;;;19.76;72.04;99961.52;1678462;85;21049;-74
2022/08/20 00:03:40;;;;;;;2.62;2.20;;;;;;;19.75;71.99;99959.86;1678384;85;22333;-75
2022/08/20 00:06:13;;;;;;;2.62;2.20;;;;;;;19.74;71.96;99963.56;1678576;85;21041;-74
2022/08/20 00:08:40;;;;;;;;;;;;;;;19.72;71.95;99969.11;1680839;84;21735;-74
2022/08/20 00:11:09;;;;;;;2.30;2.10;;;;;;;19.73;71.98;99973.96;1678468;85;20919;-74
2022/08/20 00:13:40;;;;;;;3.80;2.10;;;;;;;19.71;72.13;99969.31;1678499;85;21061;-74
2022/08/20 00:16:07;;;;;;;2.67;2.02;;;;;;;19.71;72.22;99958.08;1677986;84;21899;-74
2022/08/20 00:18:37;;;;;;;2.42;2.20;;;;;;;19.72;72.25;99950.88;1678312;85;21755;-74
2022/08/20 00:21:07;;;;;;;2.27;2.00;;;;;;;19.72;72.37;99946.85;1678696;85;21693;-75
2022/08/20 00:23:39;;;;;;;2.72;2.30;;;;;;;19.70;72.42;99951.58;1678431;85;21036;-75
2022/08/20 00:26:06;;;;;;;3.05;2.20;;;;;;;19.69;72.48;99955.28;1678936;85;21033;-75
2022/08/20 00:28:32;;;;;;;3.45;2.02;;;;;;;19.71;72.48;99962.61;1678399;85;22488;-75
2022/08/20 00:31:03;;;;;;;2.35;2.08;;;;;;;19.71;72.48;99955.91;1678340;85;21744;-74
2022/08/20 00:33:30;;;;;;;3.05;2.20;;;;;;;19.73;72.55;99953.86;1678413;85;21377;-74
2022/08/20 00:35:56;;;;;;;2.85;2.30;;;;;;;19.72;72.60;99951.70;1678379;85;21089;-73
2022/08/20 00:38:24;;;;;;;3.42;2.10;;;;;;;19.71;72.62;99946.53;1678660;85;21085;-74
2022/08/20 00:40:54;;;;;;;4.00;2.20;;;;;;;19.70;72.63;99955.08;1678438;85;21836;-74
2022/08/20 00:43:41;;;;;;;2.87;2.12;;;;;;;19.68;72.70;99961.63;1666401;85;21053;-74
2022/08/20 00:46:23;;;;;;;2.75;2.20;;;;;;;19.67;72.81;99962.66;1678520;85;21476;-75
2022/08/20 00:48:53;;;;;;;2.47;2.20;;;;;;;19.62;72.94;99959.73;1678487;85;21371;-74
2022/08/20 00:51:34;;;;;;;3.12;2.40;;;;;;;19.58;73.10;99957.92;1678696;85;21077;-74
2022/08/20 00:54:09;;;;;;;3.65;2.20;;;;;;;19.56;73.18;99959.97;1678745;85;21921;-74
2022/08/20 00:56:36;;;;;;;4.33;2.50;;;;;;;19.56;73.21;99959.14;1678349;85;21037;-74
2022/08/20 00:59:05;;;;;;;4.83;2.27;;;;;;;19.56;73.22;99954.61;1678390;85;21068;-75
2022/08/20 01:01:33;;;;;;;3.52;2.40;;;;;;;19.56;73.25;99958.63;1678964;85;21565;-74
2022/08/20 01:04:00;;;;;;;2.98;2.33;;;;;;;19.55;73.29;99955.61;1678527;85;21484;-74
2022/08/20 01:06:27;;;;;;;3.33;2.22;;;;;;;19.54;73.30;99955.80;1678639;85;22401;-74
2022/08/20 01:08:53;;;;;;;2.58;2.25;;;;;;;19.54;73.37;99951.78;1677886;85;21037;-74
2022/08/20 01:11:25;;;;;;;3.40;2.25;;;;;;;19.54;73.39;99946.42;1677864;85;21112;-75
2022/08/20 01:13:49;;;;;;;3.58;2.10;;;;;;;19.53;73.43;99940.75;1677595;85;21041;-74
2022/08/20 01:16:23;;;;;;;2.92;2.20;;;;;;;19.51;73.44;99938.27;1677911;84;21359;-74
2022/08/20 01:18:50;;;;;;;2.70;2.47;;;;;;;19.50;73.42;99943.82;1677917;85;21839;-74
2022/08/20 01:21:20;;;;;;;4.45;2.55;;;;;;;19.51;73.35;99952.17;1678083;85;21264;-74
2022/08/20 01:24:08;;;;;;;4.35;2.50;;;;;;;19.50;73.41;99949.17;1677602;85;21444;-74
2022/08/20 01:26:39;;;;;;;5.15;2.50;;;;;;;19.50;73.44;99953.19;1677706;85;21072;-74
2022/08/20 01:29:10;;;;;;;4.87;2.30;;;;;;;19.47;73.43;99961.08;1677898;85;21037;-74
2022/08/20 01:31:38;;;;;;;3.77;2.30;;;;;;;19.47;73.45;99958.91;1677813;85;22473;-74
2022/08/20 01:34:07;;;;;;;3.92;2.50;;;;;;;19.44;73.53;99952.92;1677841;85;21041;-74
2022/08/20 01:36:38;;;;;;;2.90;2.60;;;;;;;19.42;73.76;99950.12;1677856;85;21061;-74
2022/08/20 01:39:08;;;;;;;3.35;2.50;;;;;;;19.39;73.93;99951.30;1677876;85;22101;-74
2022/08/20 01:41:52;;;;;;;2.95;2.47;;;;;;;19.40;74.04;99956.17;1677871;85;21053;-74
2022/08/20 01:44:21;;;;;;;5.95;2.37;;;;;;;19.39;74.19;99949.13;1647015;85;21820;-75
2022/08/20 01:46:49;;;;;;;3.85;2.62;;;;;;;19.40;74.26;99943.61;1677855;85;21336;-74
2022/08/20 01:49:27;;;;;;;4.17;2.52;;;;;;;19.39;74.31;99938.42;1678158;85;21033;-74
2022/08/20 01:51:56;;;;;;;5.62;2.75;;;;;;;19.39;74.38;99937.91;1677800;85;21034;-74
2022/08/20 01:54:22;;;;;;;3.55;2.70;;;;;;;19.40;74.39;99935.58;1678200;85;21085;-74
2022/08/20 01:57:00;;;;;;;4.58;2.60;;;;;;;19.40;74.50;99934.75;1677923;85;21790;-74
2022/08/20 01:59:27;;;;;;;3.58;2.58;;;;;;;19.42;74.53;99938.89;1677167;85;21516;-74
2022/08/20 02:01:54;;;;;;;5.40;2.98;;;;;;;19.43;74.54;99941.06;1678094;85;21049;-74
2022/08/20 02:04:21;;;;;;;5.92;2.92;;;;;;;19.41;74.56;99938.58;1677850;85;21290;-74
2022/08/20 02:06:57;;;;;;;3.87;3.20;;;;;;;19.41;74.56;99937.75;1677886;85;21053;-74
2022/08/20 02:09:26;;;;;;;3.00;2.70;;;;;;;19.40;74.58;99947.63;1678240;84;21812;-74
2022/08/20 02:11:54;;;;;;;5.92;3.27;;;;;;;19.38;74.63;99949.64;1654415;85;21025;-74
2022/08/20 02:14:21;;;;;;;4.92;2.95;;;;;;;19.38;74.76;99956.34;1678400;85;21735;-75
2022/08/20 02:16:48;;;;;;;4.83;2.95;;;;;;;19.37;74.80;99960.04;1678330;84;21509;-75
2022/08/20 02:19:19;;;;;;;3.55;2.90;;;;;;;19.38;74.86;99956.85;1678484;85;21825;-74
2022/08/20 02:21:53;;;;;;;4.17;3.08;;;;;;;19.39;74.89;99960.67;1677668;85;22529;-74
2022/08/20 02:24:20;;;;;;;4.25;3.10;;;;;;;19.41;74.83;99963.19;1678312;85;21041;-74
2022/08/20 02:26:46;;;;;;;4.37;3.30;;;;;;;19.42;74.89;99967.52;1678585;85;21053;-74
2022/08/20 02:29:13;;;;;;;3.65;2.90;;;;;;;19.39;74.95;99963.86;1678433;85;21070;-74
2022/08/20 02:31:42;;;;;;;4.28;3.00;;;;;;;19.39;75.00;99971.39;1678772;85;21081;-74
2022/08/20 02:34:09;;;;;;;3.05;2.75;;;;;;;19.41;75.06;99971.23;1678528;85;21980;-74
2022/08/20 02:36:37;;;;;;;4.40;2.92;;;;;;;19.41;75.08;99968.03;1678470;85;21532;-74
2022/08/20 02:39:06;;;;;;;3.67;3.02;;;;;;;19.42;75.13;99963.00;1678418;85;21060;-74
2022/08/20 02:41:36;;;;;;;3.87;3.08;;;;;;;19.42;75.25;99963.00;1678445;85;21109;-75
2022/08/20 02:44:04;;;;;;;4.62;3.00;;;;;;;19.37;75.27;99971.27;1678771;85;21058;-74
2022/08/20 02:46:31;;;;;;;3.60;3.30;;;;;;;19.34;75.39;99979.69;1654916;85;22215;-74
2022/08/20 02:48:58;;;;;;;4.95;3.58;;;;;;;19.33;75.39;99986.06;1678427;85;21013;-74
2022/08/20 02:51:25;;;;;;;5.28;3.20;;;;;;;19.33;75.40;99984.21;1678696;85;21033;-74
2022/08/20 02:53:51;;;;;;;4.67;3.08;;;;;;;19.32;75.46;99987.08;1678476;85;21037;-74
2022/08/20 02:56:18;;;;;;;3.90;3.10;;;;;;;19.30;75.55;99981.92;1678819;85;20969;-74
2022/08/20 02:58:45;;;;;;;6.33;3.30;;;;;;;19.30;75.56;99975.23;1678504;85;22081;-74
2022/08/20 03:01:14;;;;;;;4.85;3.20;;;;;;;19.30;75.61;99975.70;1678459;85;20950;-74
2022/08/20 03:03:41;;;;;;;3.35;3.05;;;;;;;19.30;75.57;99981.92;1678781;85;21307;-74
2022/08/20 03:06:09;;;;;;;5.58;3.40;;;;;;;19.32;75.59;99980.39;1654652;85;21009;-74
2022/08/20 03:08:36;;;;;;;4.50;3.40;;;;;;;19.32;75.56;99985.74;1678362;85;21128;-74
2022/08/20 03:11:03;;;;;;;4.05;3.37;;;;;;;19.29;75.65;99990.11;1654528;85;21899;-74
2022/08/20 03:13:31;;;;;;;5.20;3.70;;;;;;;19.26;75.67;99989.16;1678387;85;21042;-73
2022/08/20 03:15:59;;;;;;;4.87;3.47;;;;;;;19.23;75.74;99991.71;1678438;85;21052;-74
2022/08/20 03:18:30;;;;;;;4.28;3.15;;;;;;;19.24;75.75;99994.70;1654429;85;21037;-74
2022/08/20 03:20:57;;;;;;;7.53;3.50;;;;;;;19.24;75.69;99994.70;1678521;85;21041;-74
2022/08/20 03:23:23;;;;;;;4.28;3.40;;;;;;;19.25;75.64;100001.72;1678750;85;21802;-73
2022/08/20 03:25:50;;;;;;;4.87;3.62;;;;;;;19.23;75.62;99994.39;1678458;85;21034;-73
2022/08/20 03:28:16;;;;;;;7.08;3.30;;;;;;;19.21;75.68;99996.43;1678736;85;21041;-74
2022/08/20 03:30:43;;;;;;;6.08;3.40;;;;;;;19.20;75.69;99996.59;1678468;85;21021;-74
2022/08/20 03:33:10;;;;;;;4.03;3.30;;;;;;;19.20;75.77;100006.79;1678740;85;21104;-74
2022/08/20 03:35:36;;;;;;;3.98;3.50;;;;;;;19.21;75.73;100005.80;1678701;85;21741;-73
2022/08/20 03:38:10;;;;;;;5.33;3.42;;;;;;;19.21;75.70;100008.98;1678441;85;21041;-73
2022/08/20 03:40:36;;;;;;;;;;;;;;;19.17;75.72;100005.83;1681000;85;21311;-74
2022/08/20 03:43:05;;;;;;;6.22;3.30;;;;;;;19.14;75.76;100003.54;1678455;85;20562;-74
2022/08/20 03:45:32;;;;;;;5.42;3.30;;;;;;;19.14;75.83;100004.88;1678484;85;21097;-74
2022/08/20 03:48:00;;;;;;;3.52;3.22;;;;;;;19.15;75.81;100017.24;1678446;85;22299;-74
2022/08/20 03:50:28;;;;;;;3.77;3.20;;;;;;;19.20;75.78;100016.16;1678659;85;21129;-74
2022/08/20 03:52:56;;;;;;;5.72;3.37;;;;;;;19.23;75.76;100007.78;1678455;85;21045;-74
2022/08/20 03:55:23;;;;;;;5.50;3.33;;;;;;;19.24;75.70;100016.64;1678466;85;21279;-74
2022/08/20 03:57:55;;;;;;;5.97;3.30;;;;;;;19.25;75.63;100016.45;1678757;85;21061;-73
2022/08/20 04:00:26;;;;;;;5.08;3.67;;;;;;;19.27;75.61;100016.25;1678690;85;22371;-74
2022/08/20 04:02:56;;;;;;;3.77;3.40;;;;;;;19.26;75.62;100015.94;1678406;85;21425;-75
2022/08/20 04:05:21;;;;;;;8.40;3.50;;;;;;;19.24;75.66;100009.44;1678352;85;21037;-73
2022/08/20 04:07:49;;;;;;;5.20;3.50;;;;;;;19.22;75.75;100004.78;1678658;85;21049;-74
2022/08/20 04:10:15;;;;;;;3.55;3.25;;;;;;;19.24;75.83;100002.74;1678369;84;21536;-74
2022/08/20 04:12:44;;;;;;;4.15;3.40;;;;;;;19.27;75.83;100005.03;1678618;85;22903;-74
2022/08/20 04:15:12;;;;;;;4.70;3.33;;;;;;;19.31;75.87;100002.32;1678405;85;21546;-75
2022/08/20 04:17:42;;;;;;;4.12;3.37;;;;;;;19.38;75.84;99997.85;1678432;84;21085;-74
2022/08/20 04:20:11;;;;;;;4.12;3.72;;;;;;;19.44;75.79;100000.30;1678681;85;21476;-74
2022/08/20 04:22:38;;;;;;;4.15;3.33;;;;;;;19.42;75.61;100000.50;1678518;85;21057;-74
2022/08/20 04:25:07;;;;;;;4.72;3.52;;;;;;;19.42;75.65;99999.16;1678705;85;21740;-74
2022/08/20 04:27:36;;;;;;;3.95;3.45;;;;;;;19.47;75.68;99988.38;1678376;85;21066;-74
2022/08/20 04:30:09;;;;;;;5.97;3.62;;;;;;;19.50;75.61;99989.36;1678247;85;20969;-74
2022/08/20 04:32:37;;;;;;;;;;;;;;;19.52;75.50;99987.31;1681187;85;21367;-74
2022/08/20 04:35:06;;;;;;;4.87;3.52;;;;;;;19.57;75.48;99988.93;1678728;85;20318;-74
2022/08/20 04:37:33;;;;;;;4.25;3.60;;;;;;;19.58;75.50;99982.55;1678319;85;21866;-73
2022/08/20 04:42:53;;;;;;;6.28;3.65;;;;;;;19.67;75.38;99975.54;1678772;85;21048;-74
2022/08/20 04:45:20;;;;;;;4.37;3.47;;;;;;;19.70;75.24;99983.73;1678418;85;21875;-75
2022/08/20 04:47:48;;;;;;;4.67;3.33;;;;;;;19.71;75.15;99984.05;1678432;85;21363;-75
2022/08/20 04:50:15;;;;;;;7.03;3.80;;;;;;;19.71;75.17;99976.84;1678416;85;22488;-74
2022/08/20 04:52:41;;;;;;;5.37;3.83;;;;;;;19.76;75.18;99981.61;1678547;85;21025;-74
2022/08/20 04:55:09;;;;;;;5.17;3.70;;;;;;;19.83;75.13;99987.88;1678397;85;21045;-74
2022/08/20 04:57:37;;;;;;;5.60;3.62;;;;;;;19.88;75.07;99985.47;1678396;85;21029;-75
2022/08/20 05:00:10;;;;;;;5.80;3.80;;;;;;;19.92;74.88;99992.09;1678422;85;21021;-74
2022/08/20 05:02:37;;;;;;;6.08;4.20;;;;;;;19.94;74.74;99986.53;1678639;85;21898;-74
2022/08/20 05:05:07;;;;;;;5.25;4.35;;;;;;;19.95;74.59;99982.31;1666225;85;21070;-74
2022/08/20 05:07:44;;;;;;;5.45;4.17;;;;;;;19.92;74.47;99978.69;1678349;85;21050;-74
2022/08/20 05:10:15;;;;;;;5.22;4.17;;;;;;;19.90;74.46;99978.05;1678292;85;21093;-75
2022/08/20 05:12:43;;;;;;;5.08;4.10;;;;;;;19.92;74.51;99968.48;1678378;85;21045;-74
2022/08/20 05:15:10;;;;;;;5.55;4.45;;;;;;;19.91;74.54;99962.29;1654281;85;22060;-76
2022/08/20 05:17:39;;;;;;;6.72;4.70;;;;;;;19.96;74.57;99967.88;1678353;84;21036;-74
2022/08/20 05:20:07;;;;;;;6.53;4.62;;;;;;;20.01;74.59;99963.30;1677805;85;21367;-77
2022/08/20 05:22:34;;;;;;;11.12;9.15;;;;;;;20.07;74.53;99961.69;1678394;85;21038;-77
2022/08/20 05:25:00;;;;;;;6.05;5.30;;;;;;;20.09;74.40;99955.64;1678397;85;21104;-77
2022/08/20 05:27:28;;;;;;;14.93;13.38;;;;;;;20.06;74.35;99953.33;1678585;85;21747;-80
2022/08/20 05:30:10;;;;;;;8.18;6.70;;;;;;;20.05;74.43;99951.67;1678287;85;21022;-76
2022/08/20 05:32:36;;;;;;;10.95;9.85;;;;;;;20.08;74.47;99955.33;1678592;85;21292;-75
2022/08/20 05:35:06;;;;;;;12.95;6.42;;;;;;;20.08;74.46;99959.34;1678341;85;21026;-73
2022/08/20 05:37:36;;;;;;;5.90;5.05;;;;;;;20.11;74.56;99958.95;1678505;85;21274;-75
2022/08/20 05:40:10;;;;;;;7.35;5.47;;;;;;;20.15;74.56;99952.99;1654422;85;21903;-73
2022/08/20 05:42:36;;;;;;;9.08;5.50;;;;;;;20.21;74.51;99950.89;1678715;85;25466;-77
2022/08/20 05:45:04;;;;;;;9.35;6.62;;;;;;;20.30;74.39;99955.59;1654305;85;21166;-76
2022/08/20 05:47:30;;;;;;;9.95;6.95;;;;;;;20.36;74.38;99951.28;1678333;85;21077;-77
2022/08/20 05:49:57;;;;;;;8.25;6.55;;;;;;;20.45;74.36;99950.98;1678617;85;21030;-75
2022/08/20 05:52:23;;;;;;;12.37;6.72;;;;;;;20.54;74.16;99953.82;1678317;85;21922;-77
2022/08/20 05:54:52;;;;;;;10.23;6.95;;;;;;;20.59;73.77;99953.25;1678273;85;21122;-77
2022/08/20 05:57:19;;;;;;;10.82;6.55;;;;;;;20.63;73.73;99955.02;1678319;85;21105;-76
2022/08/20 05:59:46;;;;;;;9.58;7.17;;;;;;;20.69;73.63;99958.27;1678526;85;21049;-74
2022/08/20 06:04:57;;;;;;;9.15;6.83;;;;;;;20.90;73.49;99969.42;1678338;85;22819;-78
2022/08/20 06:07:24;;;;;;;8.95;6.33;;;;;;;20.95;73.30;99967.81;1678176;85;21093;-75
2022/08/20 06:09:50;;;;;;;11.05;7.30;;;;;;;21.06;73.27;99969.92;1678360;84;21041;-75
2022/08/20 06:12:18;;;;;;;10.93;6.92;;;;;;;21.13;72.91;99973.48;1678280;85;21068;-75
2022/08/20 06:14:46;;;;;;;10.43;7.25;;;;;;;21.20;72.76;99980.20;1678323;85;21068;-74
2022/08/20 06:17:14;;;;;;;9.93;6.58;;;;;;;21.23;72.36;99978.48;1678299;84;21836;-83
2022/08/20 06:19:42;;;;;;;29.95;24.82;;;;;;;21.26;72.24;99979.92;1678149;85;20981;-81
2022/08/20 06:22:09;;;;;;;66.75;59.42;;;;;;;21.32;72.21;99983.16;1678495;85;21080;-81
2022/08/20 06:24:35;;;;;;;20.10;14.05;;;;;;;21.36;72.16;99979.06;1678148;85;21551;-80
2022/08/20 06:27:03;;;;;;;39.73;35.43;;;;;;;21.41;72.01;99973.38;1678592;85;21089;-80
2022/08/20 06:29:32;;;;;;;19.80;13.58;;;;;;;21.38;71.61;99979.68;1678193;85;21819;-84
2022/08/20 06:32:00;;;;;;;14.13;10.25;;;;;;;21.28;71.58;99979.23;1678498;85;21256;-75
2022/08/20 06:34:27;;;;;;;13.08;8.90;;;;;;;21.24;71.84;99971.24;1678345;85;21088;-77
2022/08/20 06:36:55;;;;;;;12.60;8.83;;;;;;;21.25;71.98;99970.21;1678197;85;21076;-77
2022/08/20 06:39:23;;;;;;;15.58;8.88;;;;;;;21.30;72.13;99969.94;1678441;85;21347;-76
2022/08/20 06:41:50;;;;;;;16.15;9.00;;;;;;;21.34;72.19;99965.01;1678301;85;21811;-82
2022/08/20 06:44:18;;;;;;;15.05;8.88;;;;;;;21.34;72.00;99971.73;1678482;85;21038;-76
2022/08/20 06:46:44;;;;;;;12.88;8.80;;;;;;;21.31;72.07;99969.42;1678339;85;21715;-78
2022/08/20 06:49:11;;;;;;;12.47;9.65;;;;;;;21.30;72.21;99984.71;1678299;85;21046;-76
2022/08/20 06:51:38;;;;;;;16.42;9.73;;;;;;;21.32;72.35;99985.84;1678335;85;21025;-78
2022/08/20 06:54:04;;;;;;;14.20;9.50;;;;;;;21.34;72.36;99987.33;1678530;85;21791;-80
2022/08/20 06:56:32;;;;;;;16.97;9.55;;;;;;;21.39;72.42;99985.36;1678255;85;21053;-78
2022/08/20 06:58:58;;;;;;;15.38;9.30;;;;;;;21.41;72.35;99992.70;1678351;85;21089;-78
2022/08/20 07:01:25;;;;;;;13.98;8.88;;;;;;;21.39;72.39;99993.42;1678299;85;21013;-82
2022/08/20 07:03:51;;;;;;;16.17;9.05;;;;;;;21.42;72.40;99997.05;1678346;85;21046;-79
2022/08/20 07:06:18;;;;;;;16.95;9.23;;;;;;;21.48;72.49;99992.22;1678654;85;21806;-78
2022/08/20 07:08:44;;;;;;;17.87;10.13;;;;;;;21.54;72.36;99990.59;1678260;85;21489;-80
2022/08/20 07:11:11;;;;;;;65.20;58.25;;;;;;;21.57;72.16;99995.03;1677809;84;21593;-81
2022/08/20 07:13:37;;;;;;;23.75;14.18;;;;;;;21.54;72.06;99991.42;1677851;85;21025;-80
2022/08/20 07:16:04;;;;;;;16.80;11.45;;;;;;;21.58;72.11;99989.14;1677961;85;21033;-80
2022/08/20 07:18:31;;;;;;;23.85;18.23;;;;;;;21.62;72.22;99989.07;1677902;84;21826;-80
2022/08/20 07:20:57;;;;;;;15.83;11.33;;;;;;;21.64;72.21;99997.75;1652410;85;21096;-79
2022/08/20 07:23:25;;;;;;;17.75;10.28;;;;;;;21.66;72.08;99998.38;1677828;85;21037;-76
2022/08/20 07:25:54;;;;;;;13.32;9.58;;;;;;;21.70;72.16;100003.13;1677911;85;21472;-78
2022/08/20 07:28:24;;;;;;;20.90;10.23;;;;;;;21.76;72.21;99993.95;1677959;85;21296;-77
2022/08/20 07:33:39;;;;;;;17.62;9.83;;;;;;;21.76;71.97;100004.70;1677911;85;21045;-78
2022/08/20 07:36:06;;;;;;;15.28;10.28;;;;;;;21.77;71.91;100003.67;1678222;85;21022;-76
2022/08/20 07:38:33;;;;;;;14.43;10.00;;;;;;;21.76;71.80;100002.02;1677934;85;21045;-76
2022/08/20 07:41:13;;;;;;;16.75;9.83;;;;;;;21.75;71.81;100009.77;1678213;85;21029;-80
2022/08/20 07:43:38;;;;;;;14.35;9.60;;;;;;;21.75;71.86;100007.91;1677739;84;22798;-77
2022/08/20 07:46:06;;;;;;;15.80;9.38;;;;;;;21.81;71.90;100004.91;1678105;85;21042;-77
2022/08/20 07:48:33;;;;;;;15.95;10.10;;;;;;;21.83;71.87;100008.24;1677911;85;21140;-78
2022/08/20 07:51:04;;;;;;;12.00;9.98;;;;;;;21.84;71.93;100006.69;1678068;85;21437;-78
2022/08/20 07:53:33;;;;;;;14.63;10.30;;;;;;;21.86;71.89;100007.31;1677943;85;21603;-78
2022/08/20 07:56:02;;;;;;;13.30;10.00;;;;;;;21.85;71.76;99999.45;1677954;85;22601;-77
2022/08/20 07:58:29;;;;;;;14.83;10.82;;;;;;;21.86;71.78;100005.96;1677878;85;21017;-79
2022/08/20 08:00:55;;;;;;;16.52;10.30;;;;;;;21.90;71.78;99994.27;1677896;85;21041;-78
2022/08/20 08:03:21;;;;;;;18.00;10.75;;;;;;;21.93;71.74;99999.27;1678359;85;21350;-77
2022/08/20 08:05:49;;;;;;;12.78;9.80;;;;;;;21.95;71.77;99995.84;1677901;85;21057;-78
2022/08/20 08:08:21;;;;;;;15.98;11.00;;;;;;;22.00;71.94;99989.32;1677929;85;21747;-78
2022/08/20 08:10:49;;;;;;;18.12;10.35;;;;;;;22.05;71.77;99981.48;1677911;85;21049;-79
2022/08/20 08:13:18;;;;;;;17.70;10.75;;;;;;;22.08;71.64;99986.47;1676348;85;21072;-78
2022/08/20 08:15:47;;;;;;;17.67;10.63;;;;;;;22.17;71.62;99984.41;1677912;85;21033;-78
2022/08/20 08:18:19;;;;;;;14.05;10.40;;;;;;;22.24;71.66;99982.03;1677886;84;21080;-78
2022/08/20 08:20:46;;;;;;;16.00;10.70;;;;;;;22.35;71.64;99980.58;1678227;85;21822;-78
2022/08/20 08:23:12;;;;;;;15.25;10.45;;;;;;;22.55;71.71;99981.38;1677839;85;21013;-77
2022/08/20 08:25:41;;;;;;;14.65;11.03;;;;;;;22.75;71.43;99977.83;1678146;85;21053;-77
2022/08/20 08:28:10;;;;;;;16.82;10.45;;;;;;;22.95;70.74;99981.84;1678033;85;21053;-79
2022/08/20 08:30:39;;;;;;;14.47;11.35;;;;;;;23.17;70.34;99979.20;1678028;85;21374;-78
2022/08/20 08:35:55;;;;;;;28.95;25.80;;;;;;;23.54;68.74;99982.11;1677896;85;21785;-79
2022/08/20 08:38:22;;;;;;;16.85;14.20;;;;;;;23.66;67.84;99981.27;1677347;85;21098;-78
2022/08/20 08:40:53;;;;;;;14.93;11.10;;;;;;;23.79;67.74;99988.95;1677864;85;21317;-74
2022/08/20 08:43:20;;;;;;;15.10;11.30;;;;;;;23.91;67.18;99984.52;1678059;84;21053;-74
2022/08/20 08:45:50;;;;;;;14.73;10.40;;;;;;;23.98;66.44;99983.95;1677992;85;21839;-74
2022/08/20 08:48:17;;;;;;;15.68;10.88;;;;;;;24.02;66.23;99978.41;1678157;84;21037;-73
2022/08/20 08:50:47;;;;;;;15.35;10.48;;;;;;;24.11;65.94;99973.05;1677986;85;21046;-74
2022/08/20 08:53:34;;;;;;;13.85;10.63;;;;;;;24.13;65.43;99981.77;1677803;85;21044;-75
2022/08/20 08:56:02;;;;;;;13.15;10.80;;;;;;;24.13;65.14;99984.47;1677885;85;21097;-75
2022/08/20 08:58:29;;;;;;;15.68;11.55;;;;;;;24.15;65.22;99980.20;1677911;85;21890;-74
2022/08/20 09:00:56;;;;;;;14.47;10.45;;;;;;;24.23;65.08;99981.28;1677820;85;21013;-77
2022/08/20 09:03:28;;;;;;;13.28;11.88;;;;;;;24.30;65.35;99980.67;1678146;85;21029;-75
2022/08/20 09:05:58;;;;;;;19.70;10.93;;;;;;;24.35;64.72;99984.94;1678319;85;21037;-74
2022/08/20 09:08:32;;;;;;;13.65;10.40;;;;;;;24.37;64.73;99985.53;1678131;85;21275;-72
2022/08/20 09:11:06;;;;;;;16.37;11.50;;;;;;;24.41;64.50;99990.78;1677239;84;22280;-73
2022/08/20 09:13:33;;;;;;;13.10;11.12;;;;;;;24.46;64.64;99992.83;1678151;85;21106;-73
2022/08/20 09:16:00;;;;;;;14.10;11.30;;;;;;;24.51;64.84;99990.27;1678312;85;21810;-76
2022/08/20 09:18:27;;;;;;;12.75;10.58;;;;;;;24.65;64.70;99983.72;1678227;84;21080;-73
2022/08/20 09:20:54;;;;;;;14.03;11.83;;;;;;;24.78;64.11;99986.80;1678327;85;21313;-72
2022/08/20 09:23:20;;;;;;;14.10;10.95;;;;;;;24.86;63.57;99985.16;1666133;85;21876;-75
2022/08/20 09:25:47;;;;;;;11.70;10.50;;;;;;;24.90;63.29;99989.08;1678254;85;21077;-73
2022/08/20 09:28:13;;;;;;;12.07;10.78;;;;;;;24.97;63.29;99989.80;1678589;85;21821;-73
2022/08/20 09:30:40;;;;;;;15.28;11.12;;;;;;;25.02;62.95;99995.41;1678304;85;21052;-78
2022/08/20 09:33:06;;;;;;;13.15;10.75;;;;;;;25.06;62.49;99988.48;1678287;85;21021;-73
2022/08/20 09:35:33;;;;;;;12.20;11.00;;;;;;;25.06;62.25;99990.36;1678395;85;21830;-72
2022/08/20 09:38:01;;;;;;;11.93;10.68;;;;;;;25.06;62.75;99989.84;1678276;85;21291;-71
2022/08/20 09:40:28;;;;;;;13.40;10.32;;;;;;;25.11;62.86;99990.00;1678348;85;21100;-76
2022/08/20 09:42:54;;;;;;;11.97;10.40;;;;;;;25.17;62.31;99987.43;1678271;85;21040;-74
2022/08/20 09:45:21;;;;;;;12.90;10.40;;;;;;;25.22;62.16;99986.23;1678385;85;21115;-79
2022/08/20 09:47:48;;;;;;;12.93;11.53;;;;;;;25.26;62.00;99983.37;1678378;85;22311;-75
2022/08/20 09:50:14;;;;;;;12.53;11.33;;;;;;;25.34;61.65;99991.17;1654192;85;21339;-76
2022/08/20 09:52:45;;;;;;;14.28;10.53;;;;;;;25.32;61.80;99986.53;1678274;85;21037;-76
2022/08/20 09:55:34;;;;;;;13.93;11.25;;;;;;;25.33;61.64;99993.58;1678302;85;21076;-76
2022/08/20 09:58:05;;;;;;;13.43;11.15;;;;;;;25.35;61.68;99992.82;1678366;85;21066;-74
2022/08/20 10:00:31;;;;;;;12.80;10.48;;;;;;;25.35;61.66;99990.11;1678507;85;21750;-74
2022/08/20 10:02:59;;;;;;;13.05;10.88;;;;;;;25.38;61.90;99986.95;1678237;85;21723;-76
2022/08/20 10:05:25;;;;;;;12.18;10.90;;;;;;;25.44;62.04;99985.22;1678535;85;21563;-75
2022/08/20 10:07:52;;;;;;;15.00;10.70;;;;;;;25.50;61.81;99991.91;1678292;85;21041;-72
2022/08/20 10:10:19;;;;;;;12.65;10.75;;;;;;;25.49;60.99;99990.78;1678592;85;21556;-73
2022/08/20 10:12:45;;;;;;;12.18;10.88;;;;;;;25.47;60.94;99988.28;1678290;85;22709;-69
2022/08/20 10:15:12;;;;;;;16.60;11.03;;;;;;;25.49;61.23;99988.91;1678250;85;21166;-69
2022/08/20 10:17:40;;;;;;;14.55;11.18;;;;;;;25.53;61.04;99987.91;1678404;84;21417;-71
2022/08/20 10:20:09;;;;;;;14.18;11.03;;;;;;;25.52;61.13;99986.27;1678308;85;21026;-73
2022/08/20 10:22:36;;;;;;;15.58;11.45;;;;;;;25.59;61.35;99980.25;1654644;85;21061;-73
2022/08/20 10:25:04;;;;;;;18.60;11.45;;;;;;;25.67;60.81;99975.84;1678311;85;21888;-76
2022/08/20 10:27:30;;;;;;;12.90;10.98;;;;;;;25.69;60.42;99973.75;1678544;85;21681;-75
2022/08/20 10:29:57;;;;;;;16.73;13.30;;;;;;;25.77;60.71;99979.38;1678457;85;21733;-76
2022/08/20 10:32:23;;;;;;;34.20;30.90;;;;;;;25.94;60.81;99980.36;1678578;85;21069;-77
2022/08/20 10:34:50;;;;;;;14.73;12.30;;;;;;;26.13;60.15;99981.11;1678492;85;21089;-76
2022/08/20 10:37:19;;;;;;;14.55;11.40;;;;;;;26.23;60.27;99979.47;1678360;85;21909;-76
2022/08/20 10:39:46;;;;;;;41.70;37.25;;;;;;;26.37;60.16;99981.97;1678529;85;21089;-75
2022/08/20 10:42:12;;;;;;;24.23;21.62;;;;;;;26.43;59.19;99986.47;1654598;85;21098;-73
2022/08/20 10:44:39;;;;;;;16.07;11.70;;;;;;;26.55;59.25;99980.55;1678586;85;21029;-73
2022/08/20 10:47:27;;;;;;;14.40;11.03;;;;;;;26.80;59.21;99985.69;1678380;85;21096;-73
2022/08/20 10:49:55;;;;;;;11.25;9.93;;;;;;;27.02;57.94;99977.28;1678756;85;21762;-75
2022/08/20 10:52:22;;;;;;;12.58;11.28;;;;;;;27.21;57.79;99973.84;1678390;85;21017;-71
2022/08/20 10:54:48;;;;;;;14.73;11.45;;;;;;;27.51;57.38;99976.36;1676318;85;21033;-74
2022/08/20 10:57:18;;;;;;;14.35;10.85;;;;;;;27.78;56.42;99976.59;1678483;85;21295;-73
2022/08/20 10:59:46;;;;;;;12.63;10.80;;;;;;;27.92;55.64;99968.44;1678696;85;21116;-74
2022/08/20 11:02:13;;;;;;;12.23;10.70;;;;;;;28.11;54.67;99966.84;1654500;85;21960;-73
2022/08/20 11:04:42;;;;;;;14.60;11.20;;;;;;;28.09;54.32;99971.71;1678565;85;21084;-73
2022/08/20 11:07:17;;;;;;;15.03;11.57;;;;;;;27.90;54.18;99976.02;1678318;85;21375;-73
2022/08/20 11:09:46;;;;;;;14.13;11.22;;;;;;;27.79;55.37;99966.02;1677850;85;21141;-76
2022/08/20 11:12:13;;;;;;;19.52;17.48;;;;;;;27.99;55.21;99968.80;1677409;84;21065;-74
2022/08/20 11:14:40;;;;;;;24.82;22.20;;;;;;;28.19;54.70;99963.73;1677209;85;21982;-75
2022/08/20 11:17:06;;;;;;;14.83;10.93;;;;;;;28.35;54.95;99956.66;1653214;85;21060;-74
2022/08/20 11:19:42;;;;;;;13.55;10.50;;;;;;;28.42;53.12;99960.03;1665294;85;21720;-74
2022/08/20 11:22:09;;;;;;;14.28;10.45;;;;;;;28.32;52.88;99958.52;1677000;85;21352;-74
2022/08/20 11:24:36;;;;;;;12.55;11.20;;;;;;;28.20;52.97;99957.22;1676448;85;21862;-78
2022/08/20 11:27:06;;;;;;;12.73;10.95;;;;;;;28.14;53.41;99960.91;1676347;85;22608;-74
2022/08/20 11:29:36;;;;;;;11.75;10.35;;;;;;;28.20;53.51;99959.94;1676223;85;21076;-77
2022/08/20 11:32:03;;;;;;;14.68;10.45;;;;;;;28.22;53.31;99959.97;1676468;85;21793;-74
2022/08/20 11:34:30;;;;;;;12.23;11.00;;;;;;;28.34;53.16;99958.55;1678385;85;21029;-71
2022/08/20 11:36:57;;;;;;;11.83;10.63;;;;;;;28.38;52.71;99948.02;1678359;85;21076;-71
2022/08/20 11:39:25;;;;;;;13.85;11.20;;;;;;;28.44;53.15;99955.98;1678444;85;22491;-72
2022/08/20 11:41:51;;;;;;;13.62;11.33;;;;;;;28.58;52.44;99954.29;1678339;85;20926;-72
2022/08/20 11:44:17;;;;;;;16.42;11.15;;;;;;;28.64;52.57;99955.98;1678350;85;21085;-76